sensor_id;sensor_type;location;lat;lon;timestamp;P1;durP1;ratioP1;P2;durP2;ratioP2
23230;SDS011;11784;49.818;8.632;2022-08-21T00:01:14;2.53;;;1.67;;
23230;SDS011;11784;49.818;8.632;2022-08-21T00:03:42;2.53;;;1.45;;
23230;SDS011;11784;49.818;8.632;2022-08-21T00:06:08;3.75;;;1.77;;
23230;SDS011;11784;49.818;8.632;2022-08-21T00:08:34;2.60;;;1.50;;
23230;SDS011;11784;49.818;8.632;2022-08-21T00:11:00;3.05;;;1.83;;
23230;SDS011;11784;49.818;8.632;2022-08-21T00:13:26;3.05;;;1.38;;
23230;SDS011;11784;49.818;8.632;2022-08-21T00:15:51;2.72;;;1.10;;
23230;SDS011;11784;49.818;8.632;2022-08-21T00:18:17;3.70;;;1.75;;
23230;SDS011;11784;49.818;8.632;2022-08-21T00:20:43;3.58;;;1.38;;
23230;SDS011;11784;49.818;8.632;2022-08-21T00:23:09;4.38;;;1.15;;
23230;SDS011;11784;49.818;8.632;2022-08-21T00:25:35;3.38;;;1.73;;
23230;SDS011;11784;49.818;8.632;2022-08-21T00:28:02;2.58;;;1.25;;
23230;SDS011;11784;49.818;8.632;2022-08-21T00:30:28;2.25;;;1.50;;
23230;SDS011;11784;49.818;8.632;2022-08-21T00:32:54;3.70;;;1.77;;
23230;SDS011;11784;49.818;8.632;2022-08-21T00:35:24;2.72;;;1.52;;
23230;SDS011;11784;49.818;8.632;2022-08-21T00:37:59;2.63;;;1.23;;
23230;SDS011;11784;49.818;8.632;2022-08-21T00:40:27;1.85;;;1.23;;
23230;SDS011;11784;49.818;8.632;2022-08-21T00:42:55;3.50;;;1.77;;
23230;SDS011;11784;49.818;8.632;2022-08-21T00:45:22;3.53;;;1.55;;
23230;SDS011;11784;49.818;8.632;2022-08-21T00:47:48;2.70;;;1.23;;
23230;SDS011;11784;49.818;8.632;2022-08-21T00:50:14;3.25;;;1.70;;
23230;SDS011;11784;49.818;8.632;2022-08-21T00:52:40;1.98;;;1.38;;
23230;SDS011;11784;49.818;8.632;2022-08-21T00:55:07;2.92;;;1.70;;
23230;SDS011;11784;49.818;8.632;2022-08-21T00:57:36;3.72;;;1.92;;
23230;SDS011;11784;49.818;8.632;2022-08-21T01:02:33;2.13;;;1.00;;
23230;SDS011;11784;49.818;8.632;2022-08-21T01:04:59;1.63;;;1.40;;
23230;SDS011;11784;49.818;8.632;2022-08-21T01:07:25;3.22;;;2.13;;
23230;SDS011;11784;49.818;8.632;2022-08-21T01:09:50;5.72;;;1.90;;
23230;SDS011;11784;49.818;8.632;2022-08-21T01:12:17;4.80;;;1.63;;
23230;SDS011;11784;49.818;8.632;2022-08-21T01:14:43;3.08;;;1.55;;
23230;SDS011;11784;49.818;8.632;2022-08-21T01:17:10;6.03;;;1.52;;
23230;SDS011;11784;49.818;8.632;2022-08-21T01:19:38;4.15;;;1.70;;
23230;SDS011;11784;49.818;8.632;2022-08-21T01:22:04;2.28;;;1.65;;
23230;SDS011;11784;49.818;8.632;2022-08-21T01:24:30;3.00;;;1.50;;
23230;SDS011;11784;49.818;8.632;2022-08-21T01:26:57;2.20;;;1.35;;
23230;SDS011;11784;49.818;8.632;2022-08-21T01:29:44;3.67;;;1.63;;
23230;SDS011;11784;49.818;8.632;2022-08-21T01:32:22;4.88;;;1.92;;
23230;SDS011;11784;49.818;8.632;2022-08-21T01:34:48;3.05;;;1.48;;
23230;SDS011;11784;49.818;8.632;2022-08-21T01:37:15;3.75;;;1.50;;
23230;SDS011;11784;49.818;8.632;2022-08-21T01:39:41;4.05;;;1.92;;
23230;SDS011;11784;49.818;8.632;2022-08-21T01:42:07;4.00;;;1.73;;
23230;SDS011;11784;49.818;8.632;2022-08-21T01:44:33;1.90;;;1.10;;
23230;SDS011;11784;49.818;8.632;2022-08-21T01:47:00;3.42;;;1.60;;
23230;SDS011;11784;49.818;8.632;2022-08-21T01:49:28;4.60;;;1.35;;
23230;SDS011;11784;49.818;8.632;2022-08-21T01:51:53;2.65;;;1.13;;
23230;SDS011;11784;49.818;8.632;2022-08-21T01:54:19;3.60;;;1.40;;
23230;SDS011;11784;49.818;8.632;2022-08-21T01:56:46;2.50;;;1.42;;
23230;SDS011;11784;49.818;8.632;2022-08-21T01:59:13;3.25;;;1.70;;
23230;SDS011;11784;49.818;8.632;2022-08-21T02:01:39;2.35;;;1.60;;
23230;SDS011;11784;49.818;8.632;2022-08-21T02:04:05;4.55;;;1.98;;
23230;SDS011;11784;49.818;8.632;2022-08-21T02:06:32;2.28;;;1.40;;
23230;SDS011;11784;49.818;8.632;2022-08-21T02:08:59;3.90;;;1.73;;
23230;SDS011;11784;49.818;8.632;2022-08-21T02:11:25;2.58;;;1.35;;
23230;SDS011;11784;49.818;8.632;2022-08-21T02:13:51;2.90;;;1.92;;
23230;SDS011;11784;49.818;8.632;2022-08-21T02:16:17;4.07;;;1.67;;
23230;SDS011;11784;49.818;8.632;2022-08-21T02:18:42;3.80;;;1.50;;
23230;SDS011;11784;49.818;8.632;2022-08-21T02:21:08;6.32;;;1.83;;
23230;SDS011;11784;49.818;8.632;2022-08-21T02:23:33;3.90;;;1.65;;
23230;SDS011;11784;49.818;8.632;2022-08-21T02:26:00;5.25;;;2.08;;
23230;SDS011;11784;49.818;8.632;2022-08-21T02:28:27;3.53;;;1.52;;
23230;SDS011;11784;49.818;8.632;2022-08-21T02:30:52;2.38;;;1.60;;
23230;SDS011;11784;49.818;8.632;2022-08-21T02:33:19;2.05;;;1.55;;
23230;SDS011;11784;49.818;8.632;2022-08-21T02:35:46;4.57;;;1.95;;
23230;SDS011;11784;49.818;8.632;2022-08-21T02:38:13;5.88;;;1.70;;
23230;SDS011;11784;49.818;8.632;2022-08-21T02:40:41;4.82;;;2.28;;
23230;SDS011;11784;49.818;8.632;2022-08-21T02:43:09;3.83;;;1.90;;
23230;SDS011;11784;49.818;8.632;2022-08-21T02:45:36;6.70;;;1.52;;
23230;SDS011;11784;49.818;8.632;2022-08-21T02:48:03;2.33;;;1.38;;
23230;SDS011;11784;49.818;8.632;2022-08-21T02:50:32;2.63;;;1.40;;
23230;SDS011;11784;49.818;8.632;2022-08-21T02:53:01;4.50;;;1.52;;
23230;SDS011;11784;49.818;8.632;2022-08-21T02:55:28;2.45;;;1.35;;
23230;SDS011;11784;49.818;8.632;2022-08-21T02:57:56;3.90;;;1.35;;
23230;SDS011;11784;49.818;8.632;2022-08-21T03:00:23;3.42;;;1.50;;
23230;SDS011;11784;49.818;8.632;2022-08-21T03:02:51;2.38;;;1.50;;
23230;SDS011;11784;49.818;8.632;2022-08-21T03:05:18;2.50;;;1.33;;
23230;SDS011;11784;49.818;8.632;2022-08-21T03:07:44;2.75;;;1.63;;
23230;SDS011;11784;49.818;8.632;2022-08-21T03:10:11;4.72;;;1.85;;
23230;SDS011;11784;49.818;8.632;2022-08-21T03:12:37;3.30;;;1.65;;
23230;SDS011;11784;49.818;8.632;2022-08-21T03:15:05;4.43;;;2.08;;
23230;SDS011;11784;49.818;8.632;2022-08-21T03:17:32;3.38;;;1.63;;
23230;SDS011;11784;49.818;8.632;2022-08-21T03:19:58;5.85;;;1.23;;
23230;SDS011;11784;49.818;8.632;2022-08-21T03:22:25;4.60;;;1.13;;
23230;SDS011;11784;49.818;8.632;2022-08-21T03:24:51;3.08;;;1.33;;
23230;SDS011;11784;49.818;8.632;2022-08-21T03:27:17;4.15;;;1.95;;
23230;SDS011;11784;49.818;8.632;2022-08-21T03:29:42;2.88;;;1.75;;
23230;SDS011;11784;49.818;8.632;2022-08-21T03:32:08;4.07;;;2.63;;
23230;SDS011;11784;49.818;8.632;2022-08-21T03:34:34;5.30;;;1.48;;
23230;SDS011;11784;49.818;8.632;2022-08-21T03:37:00;4.72;;;2.13;;
23230;SDS011;11784;49.818;8.632;2022-08-21T03:39:26;3.53;;;1.48;;
23230;SDS011;11784;49.818;8.632;2022-08-21T03:41:52;6.63;;;2.10;;
23230;SDS011;11784;49.818;8.632;2022-08-21T03:44:18;2.55;;;1.15;;
23230;SDS011;11784;49.818;8.632;2022-08-21T03:46:44;2.75;;;1.33;;
23230;SDS011;11784;49.818;8.632;2022-08-21T03:49:10;2.92;;;1.67;;
23230;SDS011;11784;49.818;8.632;2022-08-21T03:51:35;4.68;;;1.60;;
23230;SDS011;11784;49.818;8.632;2022-08-21T03:54:01;4.72;;;1.35;;
23230;SDS011;11784;49.818;8.632;2022-08-21T03:56:26;5.22;;;1.85;;
23230;SDS011;11784;49.818;8.632;2022-08-21T03:58:52;4.43;;;1.38;;
23230;SDS011;11784;49.818;8.632;2022-08-21T04:01:18;6.18;;;1.45;;
23230;SDS011;11784;49.818;8.632;2022-08-21T04:03:44;2.97;;;1.70;;
23230;SDS011;11784;49.818;8.632;2022-08-21T04:06:09;3.13;;;1.27;;
23230;SDS011;11784;49.818;8.632;2022-08-21T04:08:35;2.53;;;1.42;;
23230;SDS011;11784;49.818;8.632;2022-08-21T04:11:01;2.22;;;1.20;;
23230;SDS011;11784;49.818;8.632;2022-08-21T04:13:26;2.42;;;1.52;;
23230;SDS011;11784;49.818;8.632;2022-08-21T04:15:53;2.13;;;1.20;;
23230;SDS011;11784;49.818;8.632;2022-08-21T04:18:19;1.80;;;1.17;;
23230;SDS011;11784;49.818;8.632;2022-08-21T04:20:46;4.07;;;1.48;;
23230;SDS011;11784;49.818;8.632;2022-08-21T04:23:14;2.25;;;1.20;;
23230;SDS011;11784;49.818;8.632;2022-08-21T04:25:40;6.57;;;1.92;;
23230;SDS011;11784;49.818;8.632;2022-08-21T04:28:05;3.50;;;1.50;;
23230;SDS011;11784;49.818;8.632;2022-08-21T04:30:31;6.15;;;1.75;;
23230;SDS011;11784;49.818;8.632;2022-08-21T04:32:57;2.63;;;1.65;;
23230;SDS011;11784;49.818;8.632;2022-08-21T04:35:23;3.70;;;1.20;;
23230;SDS011;11784;49.818;8.632;2022-08-21T04:37:51;2.67;;;1.27;;
23230;SDS011;11784;49.818;8.632;2022-08-21T04:40:17;6.07;;;1.60;;
23230;SDS011;11784;49.818;8.632;2022-08-21T04:45:36;2.67;;;1.55;;
23230;SDS011;11784;49.818;8.632;2022-08-21T04:48:05;2.00;;;1.23;;
23230;SDS011;11784;49.818;8.632;2022-08-21T04:53:43;6.55;;;1.55;;
23230;SDS011;11784;49.818;8.632;2022-08-21T04:56:06;3.75;;;1.42;;
23230;SDS011;11784;49.818;8.632;2022-08-21T04:58:36;3.72;;;1.67;;
23230;SDS011;11784;49.818;8.632;2022-08-21T05:01:03;4.63;;;1.50;;
23230;SDS011;11784;49.818;8.632;2022-08-21T05:03:32;1.80;;;1.30;;
23230;SDS011;11784;49.818;8.632;2022-08-21T05:05:59;2.17;;;1.30;;
23230;SDS011;11784;49.818;8.632;2022-08-21T05:08:25;5.68;;;1.30;;
23230;SDS011;11784;49.818;8.632;2022-08-21T05:10:53;4.38;;;1.30;;
23230;SDS011;11784;49.818;8.632;2022-08-21T05:13:19;2.47;;;1.27;;
23230;SDS011;11784;49.818;8.632;2022-08-21T05:15:45;3.92;;;1.63;;
23230;SDS011;11784;49.818;8.632;2022-08-21T05:18:11;2.67;;;1.23;;
23230;SDS011;11784;49.818;8.632;2022-08-21T05:20:37;2.50;;;1.50;;
23230;SDS011;11784;49.818;8.632;2022-08-21T05:23:09;3.00;;;1.35;;
23230;SDS011;11784;49.818;8.632;2022-08-21T05:25:37;5.90;;;1.85;;
23230;SDS011;11784;49.818;8.632;2022-08-21T05:28:03;4.00;;;1.50;;
23230;SDS011;11784;49.818;8.632;2022-08-21T05:30:29;3.20;;;1.45;;
23230;SDS011;11784;49.818;8.632;2022-08-21T05:32:56;3.22;;;1.55;;
23230;SDS011;11784;49.818;8.632;2022-08-21T05:35:23;2.70;;;1.52;;
23230;SDS011;11784;49.818;8.632;2022-08-21T05:37:48;3.03;;;1.75;;
23230;SDS011;11784;49.818;8.632;2022-08-21T05:40:14;4.20;;;1.65;;
23230;SDS011;11784;49.818;8.632;2022-08-21T05:42:39;6.90;;;1.52;;
23230;SDS011;11784;49.818;8.632;2022-08-21T05:45:05;3.42;;;1.52;;
23230;SDS011;11784;49.818;8.632;2022-08-21T05:47:31;9.07;;;1.85;;
23230;SDS011;11784;49.818;8.632;2022-08-21T05:49:57;4.18;;;2.00;;
23230;SDS011;11784;49.818;8.632;2022-08-21T05:52:22;2.85;;;1.38;;
23230;SDS011;11784;49.818;8.632;2022-08-21T05:54:48;2.63;;;1.50;;
23230;SDS011;11784;49.818;8.632;2022-08-21T05:57:14;3.22;;;1.58;;
23230;SDS011;11784;49.818;8.632;2022-08-21T05:59:40;9.63;;;1.95;;
23230;SDS011;11784;49.818;8.632;2022-08-21T06:02:06;8.30;;;1.40;;
23230;SDS011;11784;49.818;8.632;2022-08-21T06:04:36;3.08;;;1.13;;
23230;SDS011;11784;49.818;8.632;2022-08-21T06:07:03;3.08;;;1.50;;
23230;SDS011;11784;49.818;8.632;2022-08-21T06:09:29;1.60;;;1.48;;
23230;SDS011;11784;49.818;8.632;2022-08-21T06:11:54;2.15;;;1.20;;
23230;SDS011;11784;49.818;8.632;2022-08-21T06:14:20;4.38;;;1.52;;
23230;SDS011;11784;49.818;8.632;2022-08-21T06:16:45;2.72;;;1.20;;
23230;SDS011;11784;49.818;8.632;2022-08-21T06:19:11;4.53;;;1.83;;
23230;SDS011;11784;49.818;8.632;2022-08-21T06:21:37;3.22;;;1.98;;
23230;SDS011;11784;49.818;8.632;2022-08-21T06:24:02;6.13;;;1.83;;
23230;SDS011;11784;49.818;8.632;2022-08-21T06:26:29;1.58;;;1.15;;
23230;SDS011;11784;49.818;8.632;2022-08-21T06:28:55;2.95;;;1.23;;
23230;SDS011;11784;49.818;8.632;2022-08-21T06:31:22;2.78;;;1.15;;
23230;SDS011;11784;49.818;8.632;2022-08-21T06:33:49;2.03;;;1.05;;
23230;SDS011;11784;49.818;8.632;2022-08-21T06:36:15;2.72;;;1.00;;
23230;SDS011;11784;49.818;8.632;2022-08-21T06:38:41;3.20;;;1.38;;
23230;SDS011;11784;49.818;8.632;2022-08-21T06:41:07;2.30;;;0.93;;
23230;SDS011;11784;49.818;8.632;2022-08-21T06:43:33;4.18;;;1.38;;
23230;SDS011;11784;49.818;8.632;2022-08-21T06:45:59;2.33;;;1.00;;
23230;SDS011;11784;49.818;8.632;2022-08-21T06:48:25;5.30;;;1.30;;
23230;SDS011;11784;49.818;8.632;2022-08-21T06:50:50;2.72;;;1.08;;
23230;SDS011;11784;49.818;8.632;2022-08-21T06:53:18;4.05;;;1.50;;
23230;SDS011;11784;49.818;8.632;2022-08-21T06:55:45;2.85;;;1.08;;
23230;SDS011;11784;49.818;8.632;2022-08-21T06:58:12;1.77;;;0.82;;
23230;SDS011;11784;49.818;8.632;2022-08-21T07:00:39;2.08;;;1.33;;
23230;SDS011;11784;49.818;8.632;2022-08-21T07:05:45;1.88;;;0.88;;
23230;SDS011;11784;49.818;8.632;2022-08-21T07:08:10;2.42;;;0.95;;
23230;SDS011;11784;49.818;8.632;2022-08-21T07:10:36;3.38;;;1.52;;
23230;SDS011;11784;49.818;8.632;2022-08-21T07:13:01;1.73;;;0.93;;
23230;SDS011;11784;49.818;8.632;2022-08-21T07:15:30;3.20;;;1.38;;
23230;SDS011;11784;49.818;8.632;2022-08-21T07:17:56;4.70;;;1.20;;
23230;SDS011;11784;49.818;8.632;2022-08-21T07:20:22;2.78;;;1.23;;
23230;SDS011;11784;49.818;8.632;2022-08-21T07:22:47;3.78;;;1.67;;
23230;SDS011;11784;49.818;8.632;2022-08-21T07:25:13;4.15;;;1.52;;
23230;SDS011;11784;49.818;8.632;2022-08-21T07:27:38;3.40;;;1.60;;
23230;SDS011;11784;49.818;8.632;2022-08-21T07:30:04;2.70;;;0.82;;
23230;SDS011;11784;49.818;8.632;2022-08-21T07:32:31;7.60;;;1.48;;
23230;SDS011;11784;49.818;8.632;2022-08-21T07:34:56;4.32;;;1.48;;
23230;SDS011;11784;49.818;8.632;2022-08-21T07:37:22;2.28;;;1.23;;
23230;SDS011;11784;49.818;8.632;2022-08-21T07:39:47;3.95;;;1.42;;
23230;SDS011;11784;49.818;8.632;2022-08-21T07:42:14;2.40;;;1.20;;
23230;SDS011;11784;49.818;8.632;2022-08-21T07:44:40;3.75;;;1.38;;
23230;SDS011;11784;49.818;8.632;2022-08-21T07:47:05;3.22;;;1.63;;
23230;SDS011;11784;49.818;8.632;2022-08-21T07:49:31;5.20;;;1.73;;
23230;SDS011;11784;49.818;8.632;2022-08-21T07:51:56;3.28;;;1.38;;
23230;SDS011;11784;49.818;8.632;2022-08-21T07:54:22;3.10;;;1.00;;
23230;SDS011;11784;49.818;8.632;2022-08-21T07:56:48;2.90;;;1.42;;
23230;SDS011;11784;49.818;8.632;2022-08-21T07:59:13;2.08;;;1.25;;
23230;SDS011;11784;49.818;8.632;2022-08-21T08:01:39;2.70;;;1.55;;
23230;SDS011;11784;49.818;8.632;2022-08-21T08:04:04;2.45;;;1.48;;
23230;SDS011;11784;49.818;8.632;2022-08-21T08:06:30;3.90;;;1.52;;
23230;SDS011;11784;49.818;8.632;2022-08-21T08:08:56;2.40;;;1.20;;
23230;SDS011;11784;49.818;8.632;2022-08-21T08:11:21;3.47;;;1.33;;
23230;SDS011;11784;49.818;8.632;2022-08-21T08:13:48;4.93;;;1.25;;
23230;SDS011;11784;49.818;8.632;2022-08-21T08:16:15;3.70;;;1.27;;
23230;SDS011;11784;49.818;8.632;2022-08-21T08:18:41;4.32;;;1.42;;
23230;SDS011;11784;49.818;8.632;2022-08-21T08:21:07;2.88;;;1.75;;
23230;SDS011;11784;49.818;8.632;2022-08-21T08:23:34;4.78;;;1.10;;
23230;SDS011;11784;49.818;8.632;2022-08-21T08:26:00;2.30;;;1.48;;
23230;SDS011;11784;49.818;8.632;2022-08-21T08:28:27;4.65;;;1.42;;
23230;SDS011;11784;49.818;8.632;2022-08-21T08:30:54;1.48;;;0.88;;
23230;SDS011;11784;49.818;8.632;2022-08-21T08:33:20;3.20;;;1.23;;
23230;SDS011;11784;49.818;8.632;2022-08-21T08:35:46;3.25;;;1.38;;
23230;SDS011;11784;49.818;8.632;2022-08-21T08:38:13;1.83;;;1.30;;
23230;SDS011;11784;49.818;8.632;2022-08-21T08:43:16;4.95;;;1.70;;
23230;SDS011;11784;49.818;8.632;2022-08-21T08:45:42;4.28;;;2.20;;
23230;SDS011;11784;49.818;8.632;2022-08-21T08:48:12;5.85;;;2.28;;
23230;SDS011;11784;49.818;8.632;2022-08-21T08:50:48;2.63;;;1.53;;
23230;SDS011;11784;49.818;8.632;2022-08-21T08:53:26;4.82;;;2.10;;
23230;SDS011;11784;49.818;8.632;2022-08-21T08:55:56;3.35;;;1.88;;
23230;SDS011;11784;49.818;8.632;2022-08-21T08:58:24;4.45;;;2.05;;
23230;SDS011;11784;49.818;8.632;2022-08-21T09:00:53;3.78;;;1.30;;
23230;SDS011;11784;49.818;8.632;2022-08-21T09:03:20;3.30;;;1.10;;
23230;SDS011;11784;49.818;8.632;2022-08-21T09:05:50;6.28;;;2.25;;
23230;SDS011;11784;49.818;8.632;2022-08-21T09:08:20;4.40;;;1.70;;
23230;SDS011;11784;49.818;8.632;2022-08-21T09:11:01;3.22;;;1.55;;
23230;SDS011;11784;49.818;8.632;2022-08-21T09:13:45;6.45;;;1.70;;
23230;SDS011;11784;49.818;8.632;2022-08-21T09:16:27;2.53;;;1.23;;
23230;SDS011;11784;49.818;8.632;2022-08-21T09:21:54;6.15;;;1.85;;
23230;SDS011;11784;49.818;8.632;2022-08-21T09:24:52;4.00;;;1.70;;
23230;SDS011;11784;49.818;8.632;2022-08-21T09:27:19;2.72;;;1.10;;
23230;SDS011;11784;49.818;8.632;2022-08-21T09:29:47;1.75;;;1.20;;
23230;SDS011;11784;49.818;8.632;2022-08-21T09:32:18;3.05;;;1.40;;
23230;SDS011;11784;49.818;8.632;2022-08-21T09:37:21;2.42;;;1.23;;
23230;SDS011;11784;49.818;8.632;2022-08-21T09:39:46;1.48;;;1.25;;
23230;SDS011;11784;49.818;8.632;2022-08-21T09:42:12;3.13;;;1.60;;
23230;SDS011;11784;49.818;8.632;2022-08-21T09:44:48;5.80;;;1.20;;
23230;SDS011;11784;49.818;8.632;2022-08-21T09:47:13;3.67;;;1.10;;
23230;SDS011;11784;49.818;8.632;2022-08-21T09:49:44;2.70;;;1.23;;
23230;SDS011;11784;49.818;8.632;2022-08-21T09:54:43;4.68;;;1.17;;
23230;SDS011;11784;49.818;8.632;2022-08-21T10:02:49;3.15;;;1.23;;
23230;SDS011;11784;49.818;8.632;2022-08-21T10:07:42;1.75;;;1.00;;
23230;SDS011;11784;49.818;8.632;2022-08-21T10:10:09;2.53;;;1.20;;
23230;SDS011;11784;49.818;8.632;2022-08-21T10:12:43;5.25;;;1.42;;
23230;SDS011;11784;49.818;8.632;2022-08-21T10:23:45;3.10;;;1.05;;
23230;SDS011;11784;49.818;8.632;2022-08-21T10:27:12;5.90;;;1.42;;
23230;SDS011;11784;49.818;8.632;2022-08-21T10:29:58;1.90;;;1.25;;
23230;SDS011;11784;49.818;8.632;2022-08-21T10:32:43;5.13;;;0.95;;
23230;SDS011;11784;49.818;8.632;2022-08-21T10:35:33;1.60;;;0.90;;
23230;SDS011;11784;49.818;8.632;2022-08-21T10:38:29;4.82;;;0.90;;
23230;SDS011;11784;49.818;8.632;2022-08-21T10:47:06;1.80;;;0.85;;
23230;SDS011;11784;49.818;8.632;2022-08-21T10:49:45;1.95;;;1.00;;
23230;SDS011;11784;49.818;8.632;2022-08-21T10:55:05;2.50;;;1.27;;
23230;SDS011;11784;49.818;8.632;2022-08-21T11:00:07;1.42;;;0.63;;
23230;SDS011;11784;49.818;8.632;2022-08-21T11:02:49;3.20;;;1.00;;
23230;SDS011;11784;49.818;8.632;2022-08-21T11:05:21;1.65;;;0.70;;
23230;SDS011;11784;49.818;8.632;2022-08-21T11:07:57;5.00;;;1.38;;
23230;SDS011;11784;49.818;8.632;2022-08-21T11:10:34;2.13;;;0.95;;
23230;SDS011;11784;49.818;8.632;2022-08-21T11:13:11;3.22;;;1.30;;
23230;SDS011;11784;49.818;8.632;2022-08-21T11:16:00;1.30;;;1.02;;
23230;SDS011;11784;49.818;8.632;2022-08-21T11:18:33;2.67;;;0.90;;
23230;SDS011;11784;49.818;8.632;2022-08-21T11:24:03;3.00;;;0.95;;
23230;SDS011;11784;49.818;8.632;2022-08-21T11:26:53;3.08;;;0.85;;
23230;SDS011;11784;49.818;8.632;2022-08-21T11:29:44;3.17;;;1.00;;
23230;SDS011;11784;49.818;8.632;2022-08-21T11:38:00;12.52;;;1.20;;
23230;SDS011;11784;49.818;8.632;2022-08-21T11:43:27;2.00;;;0.98;;
23230;SDS011;11784;49.818;8.632;2022-08-21T11:54:26;3.58;;;1.20;;
23230;SDS011;11784;49.818;8.632;2022-08-21T11:56:59;3.85;;;1.30;;
23230;SDS011;11784;49.818;8.632;2022-08-21T11:59:49;1.85;;;1.00;;
23230;SDS011;11784;49.818;8.632;2022-08-21T12:02:28;3.88;;;0.82;;
23230;SDS011;11784;49.818;8.632;2022-08-21T12:05:00;2.50;;;0.88;;
23230;SDS011;11784;49.818;8.632;2022-08-21T12:07:39;1.17;;;0.70;;
23230;SDS011;11784;49.818;8.632;2022-08-21T12:10:11;2.97;;;0.88;;
23230;SDS011;11784;49.818;8.632;2022-08-21T12:12:42;1.42;;;0.75;;
23230;SDS011;11784;49.818;8.632;2022-08-21T12:23:27;2.13;;;0.98;;
23230;SDS011;11784;49.818;8.632;2022-08-21T12:29:02;1.75;;;1.00;;
23230;SDS011;11784;49.818;8.632;2022-08-21T12:31:29;1.50;;;1.05;;
23230;SDS011;11784;49.818;8.632;2022-08-21T12:33:58;1.83;;;0.80;;
23230;SDS011;11784;49.818;8.632;2022-08-21T12:36:33;3.88;;;1.00;;
23230;SDS011;11784;49.818;8.632;2022-08-21T12:39:11;2.20;;;1.05;;
23230;SDS011;11784;49.818;8.632;2022-08-21T12:44:43;1.95;;;0.95;;
23230;SDS011;11784;49.818;8.632;2022-08-21T12:47:45;5.68;;;1.15;;
23230;SDS011;11784;49.818;8.632;2022-08-21T12:50:21;2.67;;;1.17;;
23230;SDS011;11784;49.818;8.632;2022-08-21T12:53:09;5.10;;;1.00;;
23230;SDS011;11784;49.818;8.632;2022-08-21T12:55:49;1.15;;;0.68;;
23230;SDS011;11784;49.818;8.632;2022-08-21T12:58:22;1.35;;;0.73;;
23230;SDS011;11784;49.818;8.632;2022-08-21T13:00:50;5.93;;;1.27;;
23230;SDS011;11784;49.818;8.632;2022-08-21T13:03:19;3.03;;;1.00;;
23230;SDS011;11784;49.818;8.632;2022-08-21T13:05:46;4.00;;;0.70;;
23230;SDS011;11784;49.818;8.632;2022-08-21T13:08:14;2.28;;;0.80;;
23230;SDS011;11784;49.818;8.632;2022-08-21T13:10:41;1.77;;;1.08;;
23230;SDS011;11784;49.818;8.632;2022-08-21T13:13:15;2.55;;;1.48;;
23230;SDS011;11784;49.818;8.632;2022-08-21T13:15:45;3.40;;;1.05;;
23230;SDS011;11784;49.818;8.632;2022-08-21T13:18:19;1.90;;;0.90;;
23230;SDS011;11784;49.818;8.632;2022-08-21T13:20:47;0.60;;;0.50;;
23230;SDS011;11784;49.818;8.632;2022-08-21T13:25:52;3.35;;;0.77;;
23230;SDS011;11784;49.818;8.632;2022-08-21T13:28:18;3.22;;;0.93;;
23230;SDS011;11784;49.818;8.632;2022-08-21T13:30:48;3.88;;;0.55;;
23230;SDS011;11784;49.818;8.632;2022-08-21T13:33:19;1.02;;;0.60;;
23230;SDS011;11784;49.818;8.632;2022-08-21T13:35:51;1.13;;;0.70;;
23230;SDS011;11784;49.818;8.632;2022-08-21T13:38:25;4.53;;;0.98;;
23230;SDS011;11784;49.818;8.632;2022-08-21T13:40:55;1.73;;;0.75;;
23230;SDS011;11784;49.818;8.632;2022-08-21T13:43:25;2.25;;;0.80;;
23230;SDS011;11784;49.818;8.632;2022-08-21T13:45:54;1.10;;;0.50;;
23230;SDS011;11784;49.818;8.632;2022-08-21T13:48:21;2.63;;;0.82;;
23230;SDS011;11784;49.818;8.632;2022-08-21T13:50:50;2.43;;;1.00;;
23230;SDS011;11784;49.818;8.632;2022-08-21T13:53:35;2.72;;;0.93;;
23230;SDS011;11784;49.818;8.632;2022-08-21T13:56:20;2.55;;;1.20;;
23230;SDS011;11784;49.818;8.632;2022-08-21T13:58:47;1.25;;;0.57;;
23230;SDS011;11784;49.818;8.632;2022-08-21T14:01:23;1.48;;;0.80;;
23230;SDS011;11784;49.818;8.632;2022-08-21T14:03:52;1.77;;;0.90;;
23230;SDS011;11784;49.818;8.632;2022-08-21T14:06:23;2.35;;;1.20;;
23230;SDS011;11784;49.818;8.632;2022-08-21T14:09:00;1.52;;;0.90;;
23230;SDS011;11784;49.818;8.632;2022-08-21T14:11:33;2.10;;;0.80;;
23230;SDS011;11784;49.818;8.632;2022-08-21T14:14:02;1.48;;;0.80;;
23230;SDS011;11784;49.818;8.632;2022-08-21T14:19:49;2.38;;;0.90;;
23230;SDS011;11784;49.818;8.632;2022-08-21T14:25:13;1.27;;;0.82;;
23230;SDS011;11784;49.818;8.632;2022-08-21T14:30:48;2.75;;;0.85;;
23230;SDS011;11784;49.818;8.632;2022-08-21T14:33:18;1.05;;;0.68;;
23230;SDS011;11784;49.818;8.632;2022-08-21T14:35:56;3.70;;;1.48;;
23230;SDS011;11784;49.818;8.632;2022-08-21T14:38:23;1.50;;;0.80;;
23230;SDS011;11784;49.818;8.632;2022-08-21T14:40:53;2.42;;;1.08;;
23230;SDS011;11784;49.818;8.632;2022-08-21T14:43:21;1.70;;;0.70;;
23230;SDS011;11784;49.818;8.632;2022-08-21T14:45:47;1.88;;;0.80;;
23230;SDS011;11784;49.818;8.632;2022-08-21T14:48:15;1.30;;;0.47;;
23230;SDS011;11784;49.818;8.632;2022-08-21T14:50:41;2.03;;;0.63;;
23230;SDS011;11784;49.818;8.632;2022-08-21T14:53:07;1.17;;;0.70;;
23230;SDS011;11784;49.818;8.632;2022-08-21T14:55:34;2.95;;;0.57;;
23230;SDS011;11784;49.818;8.632;2022-08-21T14:58:21;2.90;;;0.68;;
23230;SDS011;11784;49.818;8.632;2022-08-21T15:00:49;0.68;;;0.45;;
23230;SDS011;11784;49.818;8.632;2022-08-21T15:03:15;1.60;;;0.70;;
23230;SDS011;11784;49.818;8.632;2022-08-21T15:05:41;1.60;;;0.70;;
23230;SDS011;11784;49.818;8.632;2022-08-21T15:08:07;1.27;;;0.70;;
23230;SDS011;11784;49.818;8.632;2022-08-21T15:10:33;2.72;;;1.00;;
23230;SDS011;11784;49.818;8.632;2022-08-21T15:13:00;4.40;;;0.88;;
23230;SDS011;11784;49.818;8.632;2022-08-21T15:15:27;2.20;;;1.00;;
23230;SDS011;11784;49.818;8.632;2022-08-21T15:17:55;1.35;;;0.75;;
23230;SDS011;11784;49.818;8.632;2022-08-21T15:20:21;1.77;;;0.90;;
23230;SDS011;11784;49.818;8.632;2022-08-21T15:22:46;1.27;;;0.60;;
23230;SDS011;11784;49.818;8.632;2022-08-21T15:25:12;1.30;;;0.60;;
23230;SDS011;11784;49.818;8.632;2022-08-21T15:27:38;1.27;;;0.60;;
23230;SDS011;11784;49.818;8.632;2022-08-21T15:30:04;1.70;;;0.50;;
23230;SDS011;11784;49.818;8.632;2022-08-21T15:32:30;1.55;;;0.85;;
23230;SDS011;11784;49.818;8.632;2022-08-21T15:34:56;1.08;;;0.60;;
23230;SDS011;11784;49.818;8.632;2022-08-21T15:37:23;0.75;;;0.50;;
23230;SDS011;11784;49.818;8.632;2022-08-21T15:39:49;1.35;;;0.73;;
23230;SDS011;11784;49.818;8.632;2022-08-21T15:42:16;2.72;;;0.65;;
23230;SDS011;11784;49.818;8.632;2022-08-21T15:44:43;1.40;;;0.50;;
23230;SDS011;11784;49.818;8.632;2022-08-21T15:47:11;4.57;;;1.13;;
23230;SDS011;11784;49.818;8.632;2022-08-21T15:49:40;2.70;;;0.90;;
23230;SDS011;11784;49.818;8.632;2022-08-21T15:52:10;1.42;;;0.95;;
23230;SDS011;11784;49.818;8.632;2022-08-21T15:54:37;1.48;;;0.80;;
23230;SDS011;11784;49.818;8.632;2022-08-21T15:57:02;1.55;;;0.63;;
23230;SDS011;11784;49.818;8.632;2022-08-21T15:59:28;3.28;;;0.60;;
23230;SDS011;11784;49.818;8.632;2022-08-21T16:02:04;2.75;;;0.98;;
23230;SDS011;11784;49.818;8.632;2022-08-21T16:04:30;3.33;;;0.63;;
23230;SDS011;11784;49.818;8.632;2022-08-21T16:06:56;2.50;;;0.80;;
23230;SDS011;11784;49.818;8.632;2022-08-21T16:09:22;2.38;;;0.63;;
23230;SDS011;11784;49.818;8.632;2022-08-21T16:11:48;2.70;;;0.75;;
23230;SDS011;11784;49.818;8.632;2022-08-21T16:14:14;1.15;;;0.73;;
23230;SDS011;11784;49.818;8.632;2022-08-21T16:16:41;1.95;;;0.77;;
23230;SDS011;11784;49.818;8.632;2022-08-21T16:19:08;3.60;;;0.98;;
23230;SDS011;11784;49.818;8.632;2022-08-21T16:21:35;2.45;;;0.63;;
23230;SDS011;11784;49.818;8.632;2022-08-21T16:24:01;1.75;;;0.80;;
23230;SDS011;11784;49.818;8.632;2022-08-21T16:26:27;1.80;;;0.68;;
23230;SDS011;11784;49.818;8.632;2022-08-21T16:28:54;1.27;;;0.60;;
23230;SDS011;11784;49.818;8.632;2022-08-21T16:31:22;1.05;;;0.60;;
23230;SDS011;11784;49.818;8.632;2022-08-21T16:33:50;2.13;;;1.20;;